sensor_id;sensor_type;location;lat;lon;timestamp;pressure;altitude;pressure_sealevel;temperature;humidity
64827;BME280;51265;53.972;12.286;2023-03-01T00:01:59;102317.13;;;-2.08;100.00
64827;BME280;51265;53.972;12.286;2023-03-01T00:04:26;102316.28;;;-2.09;100.00
64827;BME280;51265;53.972;12.286;2023-03-01T00:06:53;102322.38;;;-2.15;100.00
64827;BME280;51265;53.972;12.286;2023-03-01T00:09:20;102311.91;;;-2.18;100.00
64827;BME280;51265;53.972;12.286;2023-03-01T00:11:46;102319.03;;;-2.17;100.00
64827;BME280;51265;53.972;12.286;2023-03-01T00:14:12;102322.19;;;-2.13;100.00
64827;BME280;51265;53.972;12.286;2023-03-01T00:16:40;102321.81;;;-2.02;100.00
64827;BME280;51265;53.972;12.286;2023-03-01T00:19:12;102328.22;;;-1.95;100.00
64827;BME280;51265;53.972;12.286;2023-03-01T00:21:38;102325.63;;;-1.88;100.00
64827;BME280;51265;53.972;12.286;2023-03-01T00:24:04;102328.66;;;-1.75;100.00
64827;BME280;51265;53.972;12.286;2023-03-01T00:26:31;102332.16;;;-1.66;100.00
64827;BME280;51265;53.972;12.286;2023-03-01T00:28:58;102331.56;;;-1.54;100.00
64827;BME280;51265;53.972;12.286;2023-03-01T00:31:27;102331.88;;;-1.48;100.00
64827;BME280;51265;53.972;12.286;2023-03-01T00:33:55;102328.25;;;-1.33;100.00
64827;BME280;51265;53.972;12.286;2023-03-01T00:36:25;102329.91;;;-1.09;100.00
64827;BME280;51265;53.972;12.286;2023-03-01T00:38:51;102317.63;;;-1.11;100.00
64827;BME280;51265;53.972;12.286;2023-03-01T00:41:19;102309.88;;;-1.14;100.00
64827;BME280;51265;53.972;12.286;2023-03-01T00:43:46;102293.88;;;-1.24;100.00
64827;BME280;51265;53.972;12.286;2023-03-01T00:46:15;102280.78;;;-1.35;100.00
64827;BME280;51265;53.972;12.286;2023-03-01T00:48:41;102268.88;;;-1.49;100.00
64827;BME280;51265;53.972;12.286;2023-03-01T00:53:35;102263.66;;;-1.51;100.00
64827;BME280;51265;53.972;12.286;2023-03-01T00:56:03;102257.19;;;-1.41;100.00
64827;BME280;51265;53.972;12.286;2023-03-01T00:58:29;102243.78;;;-1.35;100.00
64827;BME280;51265;53.972;12.286;2023-03-01T01:00:55;102240.91;;;-1.33;100.00
64827;BME280;51265;53.972;12.286;2023-03-01T01:03:22;102233.44;;;-1.31;100.00
64827;BME280;51265;53.972;12.286;2023-03-01T01:05:53;102220.13;;;-1.33;100.00
64827;BME280;51265;53.972;12.286;2023-03-01T01:08:20;102207.50;;;-1.40;100.00
64827;BME280;51265;53.972;12.286;2023-03-01T01:10:47;102196.41;;;-1.45;100.00
64827;BME280;51265;53.972;12.286;2023-03-01T01:13:13;102190.63;;;-1.42;100.00
64827;BME280;51265;53.972;12.286;2023-03-01T01:15:40;102187.22;;;-1.36;100.00
64827;BME280;51265;53.972;12.286;2023-03-01T01:18:06;102183.13;;;-1.32;100.00
64827;BME280;51265;53.972;12.286;2023-03-01T01:20:34;102177.94;;;-1.19;100.00
64827;BME280;51265;53.972;12.286;2023-03-01T01:23:01;102163.97;;;-1.08;100.00
64827;BME280;51265;53.972;12.286;2023-03-01T01:25:27;102153.91;;;-0.99;100.00
64827;BME280;51265;53.972;12.286;2023-03-01T01:27:53;102136.75;;;-0.91;100.00
64827;BME280;51265;53.972;12.286;2023-03-01T01:30:20;102133.97;;;-0.83;100.00
64827;BME280;51265;53.972;12.286;2023-03-01T01:32:46;102121.34;;;-0.76;100.00
64827;BME280;51265;53.972;12.286;2023-03-01T01:35:12;102097.75;;;-0.82;100.00
64827;BME280;51265;53.972;12.286;2023-03-01T01:37:38;102089.91;;;-0.77;100.00
64827;BME280;51265;53.972;12.286;2023-03-01T01:40:05;102084.88;;;-0.80;100.00
64827;BME280;51265;53.972;12.286;2023-03-01T01:42:32;102070.53;;;-0.95;100.00
64827;BME280;51265;53.972;12.286;2023-03-01T01:45:33;102060.44;;;-1.02;100.00
64827;BME280;51265;53.972;12.286;2023-03-01T01:48:03;102058.50;;;-0.93;100.00
64827;BME280;51265;53.972;12.286;2023-03-01T01:50:32;102062.31;;;-0.87;100.00
64827;BME280;51265;53.972;12.286;2023-03-01T01:53:16;102051.03;;;-0.91;100.00
64827;BME280;51265;53.972;12.286;2023-03-01T01:55:54;102043.66;;;-0.82;100.00
64827;BME280;51265;53.972;12.286;2023-03-01T01:58:25;102041.59;;;-0.80;100.00
64827;BME280;51265;53.972;12.286;2023-03-01T02:00:53;102020.25;;;-0.90;100.00
64827;BME280;51265;53.972;12.286;2023-03-01T02:03:24;102012.34;;;-0.91;100.00
64827;BME280;51265;53.972;12.286;2023-03-01T02:08:47;102000.22;;;-0.95;100.00
64827;BME280;51265;53.972;12.286;2023-03-01T02:11:15;101991.19;;;-1.03;100.00
64827;BME280;51265;53.972;12.286;2023-03-01T02:13:41;101986.25;;;-1.14;100.00
64827;BME280;51265;53.972;12.286;2023-03-01T02:16:10;101981.97;;;-1.23;100.00
64827;BME280;51265;53.972;12.286;2023-03-01T02:18:38;101982.25;;;-1.33;100.00
64827;BME280;51265;53.972;12.286;2023-03-01T02:24:10;101969.09;;;-1.51;100.00
64827;BME280;51265;53.972;12.286;2023-03-01T02:26:45;101978.63;;;-1.55;100.00
64827;BME280;51265;53.972;12.286;2023-03-01T02:29:13;101978.31;;;-1.60;100.00
64827;BME280;51265;53.972;12.286;2023-03-01T02:31:42;101982.63;;;-1.65;100.00
64827;BME280;51265;53.972;12.286;2023-03-01T02:34:16;101988.56;;;-1.70;100.00
64827;BME280;51265;53.972;12.286;2023-03-01T02:36:53;101992.13;;;-1.69;100.00
64827;BME280;51265;53.972;12.286;2023-03-01T02:39:28;101996.31;;;-1.67;100.00
64827;BME280;51265;53.972;12.286;2023-03-01T02:41:57;101994.47;;;-1.66;100.00
64827;BME280;51265;53.972;12.286;2023-03-01T02:44:24;102001.34;;;-1.64;100.00
64827;BME280;51265;53.972;12.286;2023-03-01T02:46:53;101994.34;;;-1.73;100.00
64827;BME280;51265;53.972;12.286;2023-03-01T02:49:25;101989.38;;;-1.84;100.00
64827;BME280;51265;53.972;12.286;2023-03-01T02:52:15;101990.88;;;-1.96;100.00
64827;BME280;51265;53.972;12.286;2023-03-01T02:54:47;101998.00;;;-2.04;100.00
64827;BME280;51265;53.972;12.286;2023-03-01T02:57:31;102012.22;;;-2.10;100.00
64827;BME280;51265;53.972;12.286;2023-03-01T03:00:02;102020.38;;;-2.18;100.00
64827;BME280;51265;53.972;12.286;2023-03-01T03:02:34;102033.94;;;-2.26;100.00
64827;BME280;51265;53.972;12.286;2023-03-01T03:05:13;102046.50;;;-2.33;100.00
64827;BME280;51265;53.972;12.286;2023-03-01T03:07:42;102053.91;;;-2.35;100.00
64827;BME280;51265;53.972;12.286;2023-03-01T03:10:12;102061.16;;;-2.36;100.00
64827;BME280;51265;53.972;12.286;2023-03-01T03:12:39;102065.25;;;-2.40;100.00
64827;BME280;51265;53.972;12.286;2023-03-01T03:15:08;102081.31;;;-2.46;100.00
64827;BME280;51265;53.972;12.286;2023-03-01T03:17:36;102089.56;;;-2.48;100.00
64827;BME280;51265;53.972;12.286;2023-03-01T03:20:05;102093.63;;;-2.52;100.00
64827;BME280;51265;53.972;12.286;2023-03-01T03:22:38;102092.31;;;-2.56;100.00
64827;BME280;51265;53.972;12.286;2023-03-01T03:25:07;102097.59;;;-2.63;100.00
64827;BME280;51265;53.972;12.286;2023-03-01T03:27:40;102101.66;;;-2.67;100.00
64827;BME280;51265;53.972;12.286;2023-03-01T03:30:08;102109.25;;;-2.70;100.00
64827;BME280;51265;53.972;12.286;2023-03-01T03:32:36;102107.72;;;-2.73;100.00
64827;BME280;51265;53.972;12.286;2023-03-01T03:35:06;102113.31;;;-2.74;100.00
64827;BME280;51265;53.972;12.286;2023-03-01T03:37:36;102115.16;;;-2.75;100.00
64827;BME280;51265;53.972;12.286;2023-03-01T03:40:21;102117.69;;;-2.73;100.00
64827;BME280;51265;53.972;12.286;2023-03-01T03:42:47;102127.63;;;-2.74;100.00
64827;BME280;51265;53.972;12.286;2023-03-01T03:45:15;102116.84;;;-2.74;100.00
64827;BME280;51265;53.972;12.286;2023-03-01T03:47:41;102116.00;;;-2.74;100.00
64827;BME280;51265;53.972;12.286;2023-03-01T03:50:09;102130.97;;;-2.72;100.00
64827;BME280;51265;53.972;12.286;2023-03-01T03:52:36;102138.72;;;-2.69;100.00
64827;BME280;51265;53.972;12.286;2023-03-01T03:55:03;102136.03;;;-2.69;100.00
64827;BME280;51265;53.972;12.286;2023-03-01T03:57:29;102143.47;;;-2.71;100.00
64827;BME280;51265;53.972;12.286;2023-03-01T03:59:55;102142.63;;;-2.71;100.00
64827;BME280;51265;53.972;12.286;2023-03-01T04:05:15;102158.81;;;-2.71;100.00
64827;BME280;51265;53.972;12.286;2023-03-01T04:07:42;102160.00;;;-2.74;100.00
64827;BME280;51265;53.972;12.286;2023-03-01T04:10:11;102157.47;;;-2.76;100.00
64827;BME280;51265;53.972;12.286;2023-03-01T04:12:38;102162.00;;;-2.76;100.00
64827;BME280;51265;53.972;12.286;2023-03-01T04:15:06;102161.34;;;-2.78;100.00
64827;BME280;51265;53.972;12.286;2023-03-01T04:17:44;102161.16;;;-2.77;100.00
64827;BME280;51265;53.972;12.286;2023-03-01T04:20:12;102171.13;;;-2.77;100.00
64827;BME280;51265;53.972;12.286;2023-03-01T04:22:39;102174.00;;;-2.79;100.00
64827;BME280;51265;53.972;12.286;2023-03-01T04:25:06;102173.81;;;-2.77;100.00
64827;BME280;51265;53.972;12.286;2023-03-01T04:27:33;102165.06;;;-2.71;100.00
64827;BME280;51265;53.972;12.286;2023-03-01T04:30:00;102181.03;;;-2.69;100.00
64827;BME280;51265;53.972;12.286;2023-03-01T04:32:27;102177.69;;;-2.71;100.00
64827;BME280;51265;53.972;12.286;2023-03-01T04:34:53;102176.81;;;-2.72;100.00
64827;BME280;51265;53.972;12.286;2023-03-01T04:37:19;102177.00;;;-2.65;100.00
64827;BME280;51265;53.972;12.286;2023-03-01T04:39:45;102182.53;;;-2.59;100.00
64827;BME280;51265;53.972;12.286;2023-03-01T04:42:14;102183.00;;;-2.55;100.00
64827;BME280;51265;53.972;12.286;2023-03-01T04:44:40;102179.13;;;-2.53;100.00
64827;BME280;51265;53.972;12.286;2023-03-01T04:47:07;102180.31;;;-2.55;100.00
64827;BME280;51265;53.972;12.286;2023-03-01T04:49:33;102175.28;;;-2.58;100.00
64827;BME280;51265;53.972;12.286;2023-03-01T04:51:59;102167.00;;;-2.57;100.00
64827;BME280;51265;53.972;12.286;2023-03-01T04:54:28;102164.63;;;-2.52;100.00
64827;BME280;51265;53.972;12.286;2023-03-01T04:56:55;102174.53;;;-2.44;100.00
64827;BME280;51265;53.972;12.286;2023-03-01T04:59:24;102165.94;;;-2.47;100.00
64827;BME280;51265;53.972;12.286;2023-03-01T05:01:51;102175.06;;;-2.48;100.00
64827;BME280;51265;53.972;12.286;2023-03-01T05:04:18;102173.41;;;-2.49;100.00
64827;BME280;51265;53.972;12.286;2023-03-01T05:06:44;102181.50;;;-2.49;100.00
64827;BME280;51265;53.972;12.286;2023-03-01T05:09:10;102173.75;;;-2.53;100.00
64827;BME280;51265;53.972;12.286;2023-03-01T05:11:37;102169.19;;;-2.52;100.00
64827;BME280;51265;53.972;12.286;2023-03-01T05:14:08;102164.63;;;-2.52;100.00
64827;BME280;51265;53.972;12.286;2023-03-01T05:16:35;102160.22;;;-2.44;100.00
64827;BME280;51265;53.972;12.286;2023-03-01T05:19:03;102164.25;;;-2.40;100.00
64827;BME280;51265;53.972;12.286;2023-03-01T05:21:38;102159.69;;;-2.40;100.00
64827;BME280;51265;53.972;12.286;2023-03-01T05:24:28;102150.09;;;-2.42;100.00
64827;BME280;51265;53.972;12.286;2023-03-01T05:26:54;102146.06;;;-2.46;100.00
64827;BME280;51265;53.972;12.286;2023-03-01T05:29:22;102151.63;;;-2.48;100.00
64827;BME280;51265;53.972;12.286;2023-03-01T05:34:18;102140.69;;;-2.46;100.00
64827;BME280;51265;53.972;12.286;2023-03-01T05:36:45;102142.34;;;-2.45;100.00
64827;BME280;51265;53.972;12.286;2023-03-01T05:39:11;102142.31;;;-2.37;100.00
64827;BME280;51265;53.972;12.286;2023-03-01T05:41:37;102144.44;;;-2.24;100.00
64827;BME280;51265;53.972;12.286;2023-03-01T05:44:06;102140.22;;;-2.27;100.00
64827;BME280;51265;53.972;12.286;2023-03-01T05:46:33;102146.84;;;-2.30;100.00
64827;BME280;51265;53.972;12.286;2023-03-01T05:48:59;102133.84;;;-2.34;100.00
64827;BME280;51265;53.972;12.286;2023-03-01T05:51:26;102134.22;;;-2.37;100.00
64827;BME280;51265;53.972;12.286;2023-03-01T05:53:52;102131.34;;;-2.36;100.00
64827;BME280;51265;53.972;12.286;2023-03-01T05:56:18;102133.84;;;-2.34;100.00
64827;BME280;51265;53.972;12.286;2023-03-01T05:58:44;102140.06;;;-2.26;100.00
64827;BME280;51265;53.972;12.286;2023-03-01T06:01:11;102144.09;;;-2.21;100.00
64827;BME280;51265;53.972;12.286;2023-03-01T06:03:38;102135.81;;;-2.20;100.00
64827;BME280;51265;53.972;12.286;2023-03-01T06:06:05;102134.78;;;-2.19;100.00
64827;BME280;51265;53.972;12.286;2023-03-01T06:08:31;102128.69;;;-2.13;100.00
64827;BME280;51265;53.972;12.286;2023-03-01T06:10:57;102132.34;;;-2.06;100.00
64827;BME280;51265;53.972;12.286;2023-03-01T06:13:24;102126.47;;;-1.86;100.00
64827;BME280;51265;53.972;12.286;2023-03-01T06:15:50;102114.94;;;-1.80;100.00
64827;BME280;51265;53.972;12.286;2023-03-01T06:18:17;102104.91;;;-1.71;100.00
64827;BME280;51265;53.972;12.286;2023-03-01T06:20:43;102086.13;;;-1.65;100.00
64827;BME280;51265;53.972;12.286;2023-03-01T06:23:09;102077.72;;;-1.70;100.00
64827;BME280;51265;53.972;12.286;2023-03-01T06:25:37;102070.66;;;-1.71;100.00
64827;BME280;51265;53.972;12.286;2023-03-01T06:28:03;102061.88;;;-1.73;100.00
64827;BME280;51265;53.972;12.286;2023-03-01T06:30:30;102064.03;;;-1.68;100.00
64827;BME280;51265;53.972;12.286;2023-03-01T06:32:56;102067.13;;;-1.57;100.00
64827;BME280;51265;53.972;12.286;2023-03-01T06:35:26;102072.81;;;-1.52;100.00
64827;BME280;51265;53.972;12.286;2023-03-01T06:37:56;102069.09;;;-1.51;100.00
64827;BME280;51265;53.972;12.286;2023-03-01T06:40:23;102080.84;;;-1.43;100.00
64827;BME280;51265;53.972;12.286;2023-03-01T06:42:50;102085.34;;;-1.36;100.00
64827;BME280;51265;53.972;12.286;2023-03-01T06:45:18;102098.28;;;-1.31;100.00
64827;BME280;51265;53.972;12.286;2023-03-01T06:47:44;102102.97;;;-1.25;100.00
64827;BME280;51265;53.972;12.286;2023-03-01T06:50:12;102109.69;;;-1.21;100.00
64827;BME280;51265;53.972;12.286;2023-03-01T06:52:38;102112.69;;;-1.16;100.00
64827;BME280;51265;53.972;12.286;2023-03-01T06:55:05;102124.31;;;-1.01;100.00
64827;BME280;51265;53.972;12.286;2023-03-01T06:57:32;102133.38;;;-0.93;100.00
64827;BME280;51265;53.972;12.286;2023-03-01T06:59:58;102123.50;;;-0.86;100.00
64827;BME280;51265;53.972;12.286;2023-03-01T07:02:24;102132.56;;;-0.79;100.00
64827;BME280;51265;53.972;12.286;2023-03-01T07:04:51;102144.88;;;-0.62;100.00
64827;BME280;51265;53.972;12.286;2023-03-01T07:07:18;102138.06;;;-0.58;100.00
64827;BME280;51265;53.972;12.286;2023-03-01T07:09:45;102129.09;;;-0.58;100.00
64827;BME280;51265;53.972;12.286;2023-03-01T07:12:11;102137.94;;;-0.49;100.00
64827;BME280;51265;53.972;12.286;2023-03-01T07:14:37;102120.97;;;-0.58;100.00
64827;BME280;51265;53.972;12.286;2023-03-01T07:17:04;102114.84;;;-0.67;100.00
64827;BME280;51265;53.972;12.286;2023-03-01T07:19:30;102124.06;;;-0.61;100.00
64827;BME280;51265;53.972;12.286;2023-03-01T07:21:56;102127.75;;;-0.47;100.00
64827;BME280;51265;53.972;12.286;2023-03-01T07:24:22;102120.00;;;-0.51;100.00
64827;BME280;51265;53.972;12.286;2023-03-01T07:26:50;102120.09;;;-0.44;100.00
64827;BME280;51265;53.972;12.286;2023-03-01T07:29:16;102119.53;;;-0.39;100.00
64827;BME280;51265;53.972;12.286;2023-03-01T07:31:43;102116.25;;;-0.35;100.00
64827;BME280;51265;53.972;12.286;2023-03-01T07:34:09;102125.88;;;-0.32;100.00
64827;BME280;51265;53.972;12.286;2023-03-01T07:36:37;102139.09;;;-0.22;100.00
64827;BME280;51265;53.972;12.286;2023-03-01T07:39:03;102154.56;;;-0.02;100.00
64827;BME280;51265;53.972;12.286;2023-03-01T07:41:29;102154.19;;;0.02;100.00
64827;BME280;51265;53.972;12.286;2023-03-01T07:43:56;102157.16;;;0.07;100.00
64827;BME280;51265;53.972;12.286;2023-03-01T07:46:22;102150.06;;;0.06;100.00
64827;BME280;51265;53.972;12.286;2023-03-01T07:48:48;102142.09;;;0.04;100.00
64827;BME280;51265;53.972;12.286;2023-03-01T07:51:14;102147.22;;;0.14;100.00
64827;BME280;51265;53.972;12.286;2023-03-01T07:53:40;102145.56;;;0.13;100.00
64827;BME280;51265;53.972;12.286;2023-03-01T07:56:11;102155.69;;;0.26;100.00
64827;BME280;51265;53.972;12.286;2023-03-01T07:58:40;102150.69;;;0.29;100.00
64827;BME280;51265;53.972;12.286;2023-03-01T08:01:10;102145.44;;;0.21;100.00
64827;BME280;51265;53.972;12.286;2023-03-01T08:03:37;102132.00;;;0.13;100.00
64827;BME280;51265;53.972;12.286;2023-03-01T08:06:06;102112.63;;;-0.06;100.00
64827;BME280;51265;53.972;12.286;2023-03-01T08:08:33;102125.94;;;0.11;100.00
64827;BME280;51265;53.972;12.286;2023-03-01T08:11:01;102118.06;;;0.16;100.00
64827;BME280;51265;53.972;12.286;2023-03-01T08:13:28;102116.00;;;0.18;100.00
64827;BME280;51265;53.972;12.286;2023-03-01T08:16:00;102126.47;;;0.21;100.00
64827;BME280;51265;53.972;12.286;2023-03-01T08:18:26;102121.41;;;0.18;100.00
64827;BME280;51265;53.972;12.286;2023-03-01T08:20:52;102137.94;;;0.23;100.00
64827;BME280;51265;53.972;12.286;2023-03-01T08:23:18;102154.19;;;0.23;100.00
64827;BME280;51265;53.972;12.286;2023-03-01T08:25:44;102156.97;;;0.30;100.00
64827;BME280;51265;53.972;12.286;2023-03-01T08:28:10;102166.19;;;0.35;100.00
64827;BME280;51265;53.972;12.286;2023-03-01T08:30:37;102172.91;;;0.39;100.00
64827;BME280;51265;53.972;12.286;2023-03-01T08:33:03;102168.31;;;0.40;100.00
64827;BME280;51265;53.972;12.286;2023-03-01T08:35:29;102169.28;;;0.54;100.00
64827;BME280;51265;53.972;12.286;2023-03-01T08:37:56;102178.06;;;0.56;100.00
64827;BME280;51265;53.972;12.286;2023-03-01T08:40:22;102187.38;;;0.68;100.00
64827;BME280;51265;53.972;12.286;2023-03-01T08:42:48;102186.91;;;0.64;100.00
64827;BME280;51265;53.972;12.286;2023-03-01T08:45:15;102194.72;;;0.74;100.00
64827;BME280;51265;53.972;12.286;2023-03-01T08:47:44;102200.25;;;0.87;100.00
64827;BME280;51265;53.972;12.286;2023-03-01T08:50:11;102201.13;;;0.94;100.00
64827;BME280;51265;53.972;12.286;2023-03-01T08:52:37;102196.09;;;0.91;100.00
64827;BME280;51265;53.972;12.286;2023-03-01T08:55:03;102200.91;;;0.89;100.00
64827;BME280;51265;53.972;12.286;2023-03-01T08:57:30;102205.53;;;0.95;100.00
64827;BME280;51265;53.972;12.286;2023-03-01T08:59:56;102219.84;;;1.11;100.00
64827;BME280;51265;53.972;12.286;2023-03-01T09:02:22;102210.28;;;1.15;100.00
64827;BME280;51265;53.972;12.286;2023-03-01T09:04:48;102223.34;;;1.33;100.00
64827;BME280;51265;53.972;12.286;2023-03-01T09:07:17;102235.53;;;1.43;100.00
64827;BME280;51265;53.972;12.286;2023-03-01T09:09:43;102231.22;;;1.56;100.00
64827;BME280;51265;53.972;12.286;2023-03-01T09:12:10;102229.13;;;1.58;100.00
64827;BME280;51265;53.972;12.286;2023-03-01T09:14:36;102231.06;;;1.64;100.00
64827;BME280;51265;53.972;12.286;2023-03-01T09:17:04;102236.06;;;1.67;100.00
64827;BME280;51265;53.972;12.286;2023-03-01T09:19:30;102251.22;;;1.83;100.00
64827;BME280;51265;53.972;12.286;2023-03-01T09:21:57;102248.72;;;1.88;100.00
64827;BME280;51265;53.972;12.286;2023-03-01T09:24:24;102241.25;;;1.96;100.00
64827;BME280;51265;53.972;12.286;2023-03-01T09:26:53;102236.22;;;1.93;100.00
64827;BME280;51265;53.972;12.286;2023-03-01T09:29:20;102230.38;;;1.96;100.00
64827;BME280;51265;53.972;12.286;2023-03-01T09:31:46;102229.19;;;2.06;100.00
64827;BME280;51265;53.972;12.286;2023-03-01T09:34:12;102226.28;;;2.14;100.00
64827;BME280;51265;53.972;12.286;2023-03-01T09:36:41;102216.25;;;2.21;100.00
64827;BME280;51265;53.972;12.286;2023-03-01T09:39:08;102216.44;;;2.13;100.00
64827;BME280;51265;53.972;12.286;2023-03-01T09:44:20;102226.34;;;2.40;100.00
64827;BME280;51265;53.972;12.286;2023-03-01T09:46:50;102220.91;;;2.40;100.00
64827;BME280;51265;53.972;12.286;2023-03-01T09:49:19;102220.91;;;2.40;100.00
64827;BME280;51265;53.972;12.286;2023-03-01T09:51:56;102218.44;;;2.52;100.00
64827;BME280;51265;53.972;12.286;2023-03-01T09:54:23;102217.81;;;2.57;100.00
64827;BME280;51265;53.972;12.286;2023-03-01T09:56:59;102224.94;;;2.71;100.00
64827;BME280;51265;53.972;12.286;2023-03-01T09:59:48;102236.06;;;2.76;100.00
64827;BME280;51265;53.972;12.286;2023-03-01T10:02:26;102226.19;;;2.75;100.00
64827;BME280;51265;53.972;12.286;2023-03-01T10:05:21;102229.78;;;2.89;100.00
64827;BME280;51265;53.972;12.286;2023-03-01T10:10:37;102237.50;;;3.25;100.00
64827;BME280;51265;53.972;12.286;2023-03-01T10:13:17;102230.59;;;3.16;100.00
64827;BME280;51265;53.972;12.286;2023-03-01T10:15:55;102234.38;;;3.15;100.00
64827;BME280;51265;53.972;12.286;2023-03-01T10:18:26;102232.50;;;3.22;100.00
64827;BME280;51265;53.972;12.286;2023-03-01T10:21:03;102227.88;;;3.16;100.00
64827;BME280;51265;53.972;12.286;2023-03-01T10:23:34;102232.28;;;3.23;100.00
64827;BME280;51265;53.972;12.286;2023-03-01T10:26:22;102223.09;;;3.18;100.00
64827;BME280;51265;53.972;12.286;2023-03-01T10:29:03;102224.31;;;3.09;100.00
64827;BME280;51265;53.972;12.286;2023-03-01T10:34:09;102224.75;;;3.19;100.00
64827;BME280;51265;53.972;12.286;2023-03-01T10:36:38;102232.03;;;3.38;100.00
64827;BME280;51265;53.972;12.286;2023-03-01T10:39:13;102212.59;;;3.35;100.00
64827;BME280;51265;53.972;12.286;2023-03-01T10:42:04;102205.03;;;3.43;100.00
64827;BME280;51265;53.972;12.286;2023-03-01T10:44:45;102209.19;;;3.46;100.00
64827;BME280;51265;53.972;12.286;2023-03-01T10:47:22;102202.88;;;3.59;100.00
64827;BME280;51265;53.972;12.286;2023-03-01T10:49:59;102201.63;;;3.61;100.00
64827;BME280;51265;53.972;12.286;2023-03-01T10:52:29;102210.78;;;3.80;100.00
64827;BME280;51265;53.972;12.286;2023-03-01T10:55:03;102208.19;;;3.98;100.00
64827;BME280;51265;53.972;12.286;2023-03-01T10:57:34;102187.75;;;3.69;100.00
64827;BME280;51265;53.972;12.286;2023-03-01T11:00:17;102189.91;;;3.61;100.00
64827;BME280;51265;53.972;12.286;2023-03-01T11:03:03;102199.50;;;3.63;100.00
64827;BME280;51265;53.972;12.286;2023-03-01T11:05:35;102181.78;;;3.34;100.00
64827;BME280;51265;53.972;12.286;2023-03-01T11:08:02;102196.47;;;3.20;100.00
64827;BME280;51265;53.972;12.286;2023-03-01T11:10:31;102204.22;;;3.23;100.00
64827;BME280;51265;53.972;12.286;2023-03-01T11:13:17;102206.31;;;3.21;100.00
64827;BME280;51265;53.972;12.286;2023-03-01T11:16:07;102188.72;;;2.84;100.00
64827;BME280;51265;53.972;12.286;2023-03-01T11:18:36;102200.25;;;2.92;100.00
64827;BME280;51265;53.972;12.286;2023-03-01T11:21:03;102188.75;;;2.77;100.00
64827;BME280;51265;53.972;12.286;2023-03-01T11:23:30;102206.97;;;2.90;100.00
64827;BME280;51265;53.972;12.286;2023-03-01T11:26:04;102213.25;;;2.90;100.00
64827;BME280;51265;53.972;12.286;2023-03-01T11:28:32;102218.06;;;3.15;100.00
64827;BME280;51265;53.972;12.286;2023-03-01T11:31:02;102199.59;;;3.17;100.00
64827;BME280;51265;53.972;12.286;2023-03-01T11:42:29;102192.72;;;2.94;100.00
64827;BME280;51265;53.972;12.286;2023-03-01T11:45:02;102184.13;;;2.71;100.00
64827;BME280;51265;53.972;12.286;2023-03-01T11:47:53;102183.25;;;2.50;100.00
64827;BME280;51265;53.972;12.286;2023-03-01T11:50:40;102189.16;;;2.61;100.00
64827;BME280;51265;53.972;12.286;2023-03-01T11:59:09;102204.22;;;2.96;100.00
64827;BME280;51265;53.972;12.286;2023-03-01T12:05:00;102213.19;;;3.43;100.00
64827;BME280;51265;53.972;12.286;2023-03-01T12:10:31;102194.06;;;3.70;100.00
64827;BME280;51265;53.972;12.286;2023-03-01T12:13:23;102172.75;;;3.40;100.00
64827;BME280;51265;53.972;12.286;2023-03-01T12:18:44;102178.66;;;3.24;100.00
64827;BME280;51265;53.972;12.286;2023-03-01T12:21:35;102189.34;;;3.32;100.00
64827;BME280;51265;53.972;12.286;2023-03-01T12:24:28;102177.81;;;3.23;100.00
64827;BME280;51265;53.972;12.286;2023-03-01T12:27:07;102183.69;;;3.20;100.00
64827;BME280;51265;53.972;12.286;2023-03-01T12:32:34;102182.28;;;3.76;100.00
64827;BME280;51265;53.972;12.286;2023-03-01T12:35:20;102179.75;;;3.81;100.00
64827;BME280;51265;53.972;12.286;2023-03-01T12:49:24;102157.59;;;4.47;100.00
64827;BME280;51265;53.972;12.286;2023-03-01T12:51:59;102132.59;;;4.19;100.00
64827;BME280;51265;53.972;12.286;2023-03-01T12:54:33;102123.88;;;4.04;100.00
64827;BME280;51265;53.972;12.286;2023-03-01T12:57:10;102128.63;;;4.15;100.00
64827;BME280;51265;53.972;12.286;2023-03-01T13:00:00;102131.16;;;4.41;100.00
64827;BME280;51265;53.972;12.286;2023-03-01T13:02:37;102115.34;;;4.25;100.00
64827;BME280;51265;53.972;12.286;2023-03-01T13:05:18;102115.78;;;4.22;100.00
64827;BME280;51265;53.972;12.286;2023-03-01T13:08:07;102128.56;;;4.53;100.00
64827;BME280;51265;53.972;12.286;2023-03-01T13:10:45;102113.94;;;4.47;100.00
64827;BME280;51265;53.972;12.286;2023-03-01T13:13:22;102113.03;;;4.54;100.00
64827;BME280;51265;53.972;12.286;2023-03-01T13:15:50;102117.94;;;4.70;100.00
64827;BME280;51265;53.972;12.286;2023-03-01T13:20:56;102113.44;;;5.00;100.00
64827;BME280;51265;53.972;12.286;2023-03-01T13:23:26;102105.34;;;5.12;100.00
64827;BME280;51265;53.972;12.286;2023-03-01T13:26:07;102104.97;;;5.45;100.00
64827;BME280;51265;53.972;12.286;2023-03-01T13:31:01;102062.00;;;5.53;100.00
64827;BME280;51265;53.972;12.286;2023-03-01T13:35:55;102052.13;;;5.52;100.00
64827;BME280;51265;53.972;12.286;2023-03-01T13:41:27;102042.25;;;5.50;100.00
64827;BME280;51265;53.972;12.286;2023-03-01T13:44:35;102036.69;;;5.27;100.00
64827;BME280;51265;53.972;12.286;2023-03-01T13:47:15;102032.53;;;5.06;100.00
64827;BME280;51265;53.972;12.286;2023-03-01T13:55:06;102040.25;;;4.72;100.00
64827;BME280;51265;53.972;12.286;2023-03-01T13:57:43;102047.59;;;4.47;100.00
64827;BME280;51265;53.972;12.286;2023-03-01T14:00:38;102063.13;;;4.46;100.00
64827;BME280;51265;53.972;12.286;2023-03-01T14:03:19;102054.91;;;4.28;100.00
64827;BME280;51265;53.972;12.286;2023-03-01T14:08:33;102076.00;;;4.39;100.00